Time;durP1;ratioP1;P1;durP2;ratioP2;P2;SDS_P1;SDS_P2;PMS_P1;PMS_P2;Temp;Humidity;BMP_temperature;BMP_pressure;BME280_temperature;BME280_humidity;BME280_pressure;Samples;Min_cycle;Max_cycle;Signal;HPM_P1;HPM_P2
2022/05/04 00:00:33;;;;;;;13.70;5.27;;;;;;;8.48;86.98;101823.63;5114882;28;20281;-76
2022/05/04 00:02:58;;;;;;;12.30;5.83;;;;;;;8.40;87.55;101823.69;5132458;28;20281;-76
2022/05/04 00:05:25;;;;;;;11.87;5.40;;;;;;;8.36;87.88;101818.66;5133189;28;20331;-76
2022/05/04 00:07:50;;;;;;;13.73;5.82;;;;;;;8.38;88.25;101830.00;5132385;28;20311;-76
2022/05/04 00:10:15;;;;;;;9.80;5.30;;;;;;;8.40;88.80;101823.69;5133170;28;20058;-76
2022/05/04 00:12:41;;;;;;;14.50;6.20;;;;;;;8.45;88.89;101823.97;5132754;28;20023;-76
2022/05/04 00:15:07;;;;;;;11.75;5.43;;;;;;;8.48;89.61;101820.97;5114313;28;20390;-76
2022/05/04 00:17:32;;;;;;;9.07;5.07;;;;;;;8.52;89.99;101823.09;5133026;28;20066;-76
2022/05/04 00:19:58;;;;;;;12.40;5.78;;;;;;;8.53;90.03;101830.09;5113994;28;20202;-76
2022/05/04 00:22:25;;;;;;;16.10;5.75;;;;;;;8.57;89.80;101826.06;5114454;28;20114;-76
2022/05/04 00:24:50;;;;;;;10.02;6.07;;;;;;;8.60;90.74;101819.53;5113735;28;20126;-76
2022/05/04 00:27:16;;;;;;;11.93;6.45;;;;;;;8.64;89.94;101826.16;5114480;28;20142;-76
2022/05/04 00:29:43;;;;;;;13.95;6.60;;;;;;;8.67;90.13;101815.16;5132788;28;20176;-76
2022/05/04 00:32:12;;;;;;;13.88;6.35;;;;;;;8.73;90.82;101826.97;5131824;28;20495;-76
2022/05/04 00:34:39;;;;;;;11.32;6.13;;;;;;;8.74;90.97;101823.28;5114359;28;20027;-76
2022/05/04 00:37:05;;;;;;;12.07;6.18;;;;;;;8.79;90.33;101821.75;5131851;28;20061;-76
2022/05/04 00:39:30;;;;;;;14.27;7.13;;;;;;;8.86;90.58;101820.00;5132673;28;20027;-76
2022/05/04 00:42:07;;;;;;;12.20;6.38;;;;;;;8.93;90.34;101828.13;5132800;28;20034;-76
2022/05/04 00:44:32;;;;;;;13.82;6.30;;;;;;;8.95;88.18;101824.28;5131902;28;20035;-76
2022/05/04 00:46:57;;;;;;;11.00;6.33;;;;;;;8.97;89.21;101826.78;5113724;28;20487;-76
2022/05/04 00:49:23;;;;;;;13.40;6.20;;;;;;;9.00;89.24;101818.41;5113567;28;20288;-76
2022/05/04 00:51:48;;;;;;;14.27;6.25;;;;;;;9.02;89.06;101818.25;5114011;28;20277;-76
2022/05/04 00:54:13;;;;;;;14.13;6.43;;;;;;;9.06;88.63;101816.88;5131932;28;20035;-76
2022/05/04 00:56:39;;;;;;;12.63;6.45;;;;;;;9.08;88.85;101822.84;5132083;28;20063;-76
2022/05/04 00:59:04;;;;;;;13.90;6.90;;;;;;;9.08;88.68;101817.50;5132440;28;20030;-76
2022/05/04 01:01:30;;;;;;;13.88;6.72;;;;;;;9.03;88.58;101804.72;5131686;28;20043;-76
2022/05/04 01:03:58;;;;;;;9.70;6.22;;;;;;;9.07;89.07;101813.19;5132397;28;20052;-76
2022/05/04 01:06:24;;;;;;;16.27;5.97;;;;;;;9.13;87.44;101813.28;5113100;28;20042;-76
2022/05/04 01:08:50;;;;;;;12.23;5.80;;;;;;;8.98;87.51;101805.25;5132325;28;20046;-76
2022/05/04 01:11:17;;;;;;;13.93;5.50;;;;;;;8.99;87.86;101809.59;5132291;28;20501;-76
2022/05/04 01:13:42;;;;;;;16.80;6.20;;;;;;;8.92;88.35;101800.63;5113162;28;20609;-76
2022/05/04 01:16:08;;;;;;;14.75;5.85;;;;;;;8.93;88.22;101814.78;5132232;28;20023;-76
2022/05/04 01:18:33;;;;;;;12.82;5.50;;;;;;;8.93;87.46;101810.28;5131323;28;20510;-76
2022/05/04 01:20:59;;;;;;;10.57;4.88;;;;;;;8.97;87.05;101821.44;5132153;28;20096;-76
2022/05/04 01:23:26;;;;;;;12.63;5.30;;;;;;;8.98;86.96;101807.94;5131968;28;20042;-76
2022/05/04 01:25:55;;;;;;;12.23;5.63;;;;;;;9.06;86.01;101814.19;5113048;28;20356;-76
2022/05/04 01:28:20;;;;;;;11.23;5.20;;;;;;;9.00;85.85;101811.25;5113741;28;20019;-76
2022/05/04 01:30:46;;;;;;;10.60;5.30;;;;;;;9.07;85.60;101816.69;5131187;28;20411;-76
2022/05/04 01:33:11;;;;;;;13.23;5.05;;;;;;;9.10;85.14;101820.81;5131931;28;20079;-76
2022/05/04 01:35:37;;;;;;;8.80;4.88;;;;;;;9.09;84.36;101809.31;5112939;28;20449;-76
2022/05/04 01:38:02;;;;;;;12.90;5.22;;;;;;;9.11;84.60;101812.66;5113448;28;20091;-76
2022/05/04 01:40:28;;;;;;;12.90;5.13;;;;;;;9.07;85.04;101813.19;5131777;28;20446;-75
2022/05/04 01:42:53;;;;;;;12.57;5.50;;;;;;;9.02;85.79;101805.72;5112943;28;20615;-76
2022/05/04 01:45:18;;;;;;;14.00;5.32;;;;;;;9.07;85.48;101813.19;5131904;28;20273;-76
2022/05/04 01:47:48;;;;;;;12.27;5.32;;;;;;;9.10;84.86;101812.81;5130905;27;20564;-76
2022/05/04 01:50:13;;;;;;;13.40;5.65;;;;;;;9.10;84.99;101813.66;5131769;28;20019;-75
2022/05/04 01:52:39;;;;;;;10.52;4.95;;;;;;;9.10;83.81;101805.66;5131549;28;20076;-76
2022/05/04 01:55:06;;;;;;;13.40;4.80;;;;;;;9.12;84.05;101806.28;5112986;28;20419;-76
2022/05/04 01:57:31;;;;;;;13.23;4.95;;;;;;;9.16;83.15;101810.25;5131598;28;20027;-76
2022/05/04 01:59:57;;;;;;;12.52;4.97;;;;;;;9.05;83.22;101802.69;5133279;27;20395;-76
2022/05/04 02:02:22;;;;;;;12.15;5.55;;;;;;;9.13;82.74;101813.28;5135139;28;20590;-76
2022/05/04 02:04:49;;;;;;;10.82;4.65;;;;;;;9.12;82.56;101803.63;5116686;28;20023;-76
2022/05/04 02:07:14;;;;;;;9.10;4.90;;;;;;;9.20;82.29;101808.06;5134311;28;20503;-76
2022/05/04 02:09:43;;;;;;;13.88;5.03;;;;;;;9.18;82.12;101800.22;5135169;28;20062;-76
2022/05/04 02:12:09;;;;;;;10.88;5.05;;;;;;;9.21;82.04;101801.69;5134220;28;20494;-76
2022/05/04 02:14:34;;;;;;;12.02;4.97;;;;;;;9.24;81.98;101807.50;5135071;28;20051;-76
2022/05/04 02:17:00;;;;;;;11.23;5.07;;;;;;;9.14;82.64;101795.44;5115925;28;20471;-76
2022/05/04 02:19:25;;;;;;;13.45;5.25;;;;;;;9.08;82.40;101801.50;5134672;28;20042;-76
2022/05/04 02:21:50;;;;;;;14.63;5.47;;;;;;;8.97;83.45;101792.94;5134833;28;20087;-76
2022/05/04 02:24:16;;;;;;;13.07;5.18;;;;;;;8.92;83.61;101802.47;5134021;28;20066;-76
2022/05/04 02:26:41;;;;;;;14.70;5.00;;;;;;;8.84;83.75;101799.88;5134981;28;20028;-76
2022/05/04 02:29:06;;;;;;;14.18;5.70;;;;;;;8.75;84.03;101799.13;5133913;28;20522;-76
2022/05/04 02:31:32;;;;;;;13.85;5.45;;;;;;;8.72;84.70;101795.97;5134728;28;20059;-76
2022/05/04 02:33:57;;;;;;;13.48;5.82;;;;;;;8.70;85.04;101793.50;5134579;28;20087;-77
2022/05/04 02:39:06;;;;;;;16.55;6.03;;;;;;;8.71;84.02;101804.97;5134715;28;20311;-76
2022/05/04 02:41:32;;;;;;;10.20;5.15;;;;;;;8.76;83.74;101792.78;5133788;28;20074;-76
2022/05/04 02:43:58;;;;;;;12.60;5.10;;;;;;;8.74;83.93;101797.44;5134866;28;20024;-76
2022/05/04 02:46:24;;;;;;;10.00;4.70;;;;;;;8.78;83.72;101805.91;5134489;28;20035;-76
2022/05/04 02:48:49;;;;;;;14.73;5.60;;;;;;;8.71;84.74;101800.47;5133625;28;20058;-76
2022/05/04 02:51:15;;;;;;;9.85;5.30;;;;;;;8.68;85.34;101796.34;5116029;28;20058;-76
2022/05/04 02:53:41;;;;;;;10.77;5.20;;;;;;;8.68;84.95;101793.66;5133513;28;20035;-76
2022/05/04 02:56:08;;;;;;;10.77;5.05;;;;;;;8.64;84.23;101791.50;5134330;28;20062;-76
2022/05/04 02:58:34;;;;;;;13.75;5.75;;;;;;;8.68;84.36;101792.84;5133567;28;20047;-76
2022/05/04 03:04:02;;;;;;;12.18;5.47;;;;;;;8.55;85.23;101785.41;5134550;28;20058;-76
2022/05/04 03:06:28;;;;;;;8.90;5.03;;;;;;;8.50;86.07;101785.13;5133441;28;20127;-75
2022/05/04 03:08:53;;;;;;;11.38;5.15;;;;;;;8.47;86.06;101792.66;5115689;28;20119;-76
2022/05/04 03:14:02;;;;;;;13.02;5.47;;;;;;;8.32;86.83;101777.38;5134090;28;20448;-76
2022/05/04 03:16:28;;;;;;;11.82;5.72;;;;;;;8.30;86.72;101781.22;5133277;28;20071;-76
2022/05/04 03:18:53;;;;;;;12.10;5.32;;;;;;;8.28;86.74;101777.91;5115539;28;20031;-76
2022/05/04 03:21:18;;;;;;;15.30;5.22;;;;;;;8.28;88.28;101781.41;5133937;28;20027;-76
2022/05/04 03:27:06;;;;;;;14.70;5.60;;;;;;;8.23;86.17;101770.44;5133900;28;20303;-76
2022/05/04 03:29:31;;;;;;;13.75;5.53;;;;;;;8.13;86.70;101753.84;5133054;28;20039;-76
2022/05/04 03:31:57;;;;;;;17.27;5.70;;;;;;;8.16;86.99;101774.81;5115243;28;20363;-76
2022/05/04 03:34:22;;;;;;;11.57;5.30;;;;;;;8.13;87.57;101772.50;5132945;28;20073;-76
2022/05/04 03:36:47;;;;;;;12.07;5.00;;;;;;;8.13;86.97;101769.00;5115197;28;20041;-76
2022/05/04 03:39:13;;;;;;;8.95;4.93;;;;;;;8.11;87.32;101771.84;5133651;28;20056;-76
2022/05/04 03:41:41;;;;;;;12.00;5.35;;;;;;;8.11;87.89;101769.19;5114683;28;20057;-76
2022/05/04 03:44:07;;;;;;;12.98;5.50;;;;;;;8.13;88.74;101769.84;5115196;28;20042;-76
2022/05/04 03:46:47;;;;;;;13.25;5.10;;;;;;;8.15;88.54;101769.66;5114414;27;20084;-76
2022/05/04 03:49:14;;;;;;;14.32;5.32;;;;;;;8.18;88.78;101775.47;5133553;28;20502;-76
2022/05/04 03:51:40;;;;;;;12.65;5.20;;;;;;;8.12;89.60;101768.19;5114408;28;20034;-76
2022/05/04 03:54:06;;;;;;;13.15;5.63;;;;;;;8.18;89.38;101774.63;5133214;28;20111;-76
2022/05/04 03:56:32;;;;;;;12.15;5.28;;;;;;;8.13;88.67;101767.19;5114910;28;20023;-76
2022/05/04 03:58:57;;;;;;;12.52;5.43;;;;;;;8.12;88.70;101767.34;5132421;28;20039;-76
2022/05/04 04:01:22;;;;;;;13.10;5.50;;;;;;;8.00;89.04;101770.38;5133172;28;20019;-76
2022/05/04 04:03:48;;;;;;;14.23;6.00;;;;;;;7.95;89.47;101770.09;5132402;28;20042;-76
2022/05/04 04:06:13;;;;;;;16.38;5.90;;;;;;;7.86;89.92;101771.13;5133343;28;20038;-77
2022/05/04 04:08:39;;;;;;;8.93;5.03;;;;;;;7.81;90.25;101767.34;5114742;28;20023;-76
2022/05/04 04:11:05;;;;;;;12.93;5.53;;;;;;;7.78;89.89;101777.31;5132400;28;20038;-76
2022/05/04 04:13:30;;;;;;;12.63;6.07;;;;;;;7.76;89.34;101770.50;5114692;28;20027;-76
2022/05/04 04:15:56;;;;;;;11.18;5.47;;;;;;;7.74;91.28;101778.66;5114102;28;20066;-76
2022/05/04 04:18:23;;;;;;;11.73;5.70;;;;;;;7.72;90.35;101771.84;5133122;28;20023;-76
2022/05/04 04:23:33;;;;;;;13.32;4.90;;;;;;;7.66;89.30;101767.22;5129527;28;20156;-76
2022/05/04 04:29:20;;;;;;;10.80;5.00;;;;;;;7.57;90.39;101771.75;5133321;28;20042;-76
2022/05/04 04:31:45;;;;;;;10.77;5.28;;;;;;;7.51;90.82;101771.56;5132731;28;20027;-76
2022/05/04 04:34:11;;;;;;;14.02;6.50;;;;;;;7.49;92.12;101777.06;5132017;28;20092;-76
2022/05/04 04:36:36;;;;;;;14.20;6.25;;;;;;;7.50;91.49;101767.25;5114341;28;20069;-76
2022/05/04 04:39:02;;;;;;;19.60;6.43;;;;;;;7.57;91.89;101782.38;5131885;28;20119;-76
2022/05/04 04:41:28;;;;;;;9.73;5.45;;;;;;;7.58;92.16;101780.56;5132657;28;20031;-76
2022/05/04 04:43:54;;;;;;;13.68;5.65;;;;;;;7.58;92.35;101789.38;5132608;28;20037;-76
2022/05/04 04:46:19;;;;;;;13.43;5.72;;;;;;;7.53;91.56;101774.94;5131939;28;20551;-76
2022/05/04 04:48:44;;;;;;;17.60;5.75;;;;;;;7.54;92.33;101781.91;5132415;27;20044;-76
2022/05/04 04:51:10;;;;;;;25.52;6.20;;;;;;;7.59;91.23;101780.38;5113387;28;20043;-76
2022/05/04 04:53:35;;;;;;;14.57;5.47;;;;;;;7.60;90.92;101783.88;5132415;28;20138;-76
2022/05/04 04:56:00;;;;;;;15.77;6.68;;;;;;;7.60;91.27;101786.53;5132504;28;20054;-76
2022/05/04 04:58:26;;;;;;;15.23;6.22;;;;;;;7.64;90.87;101785.19;5131715;28;20051;-76
2022/05/04 05:00:51;;;;;;;11.93;5.55;;;;;;;7.64;90.69;101777.19;5132373;28;20464;-76
2022/05/04 05:03:16;;;;;;;15.43;5.15;;;;;;;7.72;91.20;101780.66;5131506;28;20124;-76
2022/05/04 05:05:43;;;;;;;9.77;5.28;;;;;;;7.75;91.40;101777.66;5113816;28;20027;-76
2022/05/04 05:08:09;;;;;;;14.93;5.90;;;;;;;7.89;91.56;101781.44;5132323;28;20031;-76
2022/05/04 05:10:35;;;;;;;16.45;5.78;;;;;;;8.08;91.57;101781.00;5131489;28;20083;-76
2022/05/04 05:16:23;;;;;;;13.63;5.80;;;;;;;8.78;88.06;101779.25;5132705;28;20107;-76
2022/05/04 05:18:48;;;;;;;11.48;6.07;;;;;;;8.94;86.33;101790.59;5132166;28;20023;-76
2022/05/04 05:21:13;;;;;;;10.53;5.40;;;;;;;9.03;86.03;101785.22;5113068;28;20043;-76
2022/05/04 05:23:38;;;;;;;10.37;5.57;;;;;;;9.13;85.21;101791.13;5113700;28;20678;-76
2022/05/04 05:26:03;;;;;;;13.97;5.50;;;;;;;9.40;84.50;101787.84;5131475;28;20271;-76
2022/05/04 05:28:29;;;;;;;20.07;6.07;;;;;;;9.81;83.64;101782.03;5131738;28;20265;-76
2022/05/04 05:30:54;;;;;;;10.80;5.30;;;;;;;10.29;81.75;101790.47;5131969;28;20628;-76
2022/05/04 05:33:19;;;;;;;18.23;5.23;;;;;;;10.82;79.75;101781.13;5131122;27;20292;-76
2022/05/04 05:35:45;;;;;;;15.80;5.70;;;;;;;11.47;76.28;101785.31;5117141;28;20280;-77
2022/05/04 05:38:10;;;;;;;12.80;5.43;;;;;;;12.12;72.55;101788.56;5116093;28;20070;-77
2022/05/04 05:40:36;;;;;;;12.68;5.70;;;;;;;12.55;70.17;101784.56;5135573;28;20380;-76
2022/05/04 05:43:01;;;;;;;9.95;4.90;;;;;;;13.06;68.62;101784.00;5135484;28;20118;-76
2022/05/04 05:45:26;;;;;;;14.23;5.95;;;;;;;13.52;64.88;101785.81;5134635;28;20438;-76
2022/05/04 05:47:52;;;;;;;11.10;5.67;;;;;;;14.07;64.07;101787.06;5135324;27;20026;-76
2022/05/04 05:50:17;;;;;;;13.90;5.15;;;;;;;14.51;61.61;101786.25;5134571;28;20285;-77
2022/05/04 05:52:43;;;;;;;15.13;5.72;;;;;;;15.00;59.27;101784.63;5135162;28;20031;-76
2022/05/04 05:55:08;;;;;;;13.52;4.75;;;;;;;15.50;56.44;101793.50;5135258;28;20461;-77
2022/05/04 05:57:34;;;;;;;16.73;5.40;;;;;;;15.94;54.11;101782.69;5134495;28;20110;-76
2022/05/04 06:00:00;;;;;;;11.30;5.68;;;;;;;16.35;52.61;101796.25;5116968;28;20034;-76
2022/05/04 06:02:29;;;;;;;12.48;4.97;;;;;;;16.73;52.02;101792.41;5134472;28;20031;-77
2022/05/04 06:04:55;;;;;;;14.40;4.90;;;;;;;17.15;48.94;101804.00;5135142;28;20023;-77
2022/05/04 06:07:20;;;;;;;11.60;5.38;;;;;;;17.52;46.62;101801.88;5116329;28;20372;-76
2022/05/04 06:09:46;;;;;;;10.65;4.68;;;;;;;17.77;46.23;101798.09;5116372;28;20043;-76
2022/05/04 06:12:11;;;;;;;10.87;4.70;;;;;;;18.20;45.42;101803.84;5134867;28;20031;-76
2022/05/04 06:14:36;;;;;;;10.48;4.70;;;;;;;18.61;44.26;101801.91;5133909;28;20324;-76
2022/05/04 06:17:02;;;;;;;12.15;5.03;;;;;;;18.80;42.50;101813.41;5134941;28;20023;-76
2022/05/04 06:19:27;;;;;;;17.52;5.13;;;;;;;19.03;42.73;101810.50;5134317;28;20071;-77
2022/05/04 06:21:53;;;;;;;10.17;4.63;;;;;;;19.40;41.11;101810.84;5134809;28;20031;-76
2022/05/04 06:24:18;;;;;;;12.53;5.40;;;;;;;19.85;41.04;101812.56;5134996;28;20621;-77
2022/05/04 06:26:44;;;;;;;12.00;5.03;;;;;;;20.38;39.83;101811.00;5115699;28;20349;-77
2022/05/04 06:29:09;;;;;;;15.18;5.82;;;;;;;20.69;37.83;101812.16;5134796;28;20049;-76
2022/05/04 06:34:18;;;;;;;14.65;5.38;;;;;;;21.51;37.42;101817.19;5134944;28;20042;-77
2022/05/04 06:36:43;;;;;;;12.00;4.75;;;;;;;21.80;36.22;101812.16;5134756;28;20028;-77
2022/05/04 06:39:10;;;;;;;10.73;5.13;;;;;;;21.94;35.35;101813.28;5115666;28;20047;-76
2022/05/04 06:41:36;;;;;;;11.70;5.32;;;;;;;22.24;34.63;101815.34;5134525;28;20038;-76
2022/05/04 06:44:06;;;;;;;12.48;5.25;;;;;;;22.13;34.68;101819.13;5115475;28;20035;-77
2022/05/04 06:46:32;;;;;;;12.90;5.68;;;;;;;22.01;33.63;101817.72;5115614;27;20031;-77
2022/05/04 06:52:20;;;;;;;10.93;4.65;;;;;;;21.94;33.59;101832.38;5134553;28;20395;-77
2022/05/04 06:54:45;;;;;;;13.85;5.03;;;;;;;21.94;33.48;101829.63;5115285;28;20015;-76
2022/05/04 06:57:11;;;;;;;10.70;4.90;;;;;;;22.39;32.61;101824.66;5134111;28;20046;-77
2022/05/04 06:59:36;;;;;;;14.90;5.47;;;;;;;21.98;31.97;101818.25;5134411;28;20031;-75
2022/05/04 07:02:01;;;;;;;10.48;5.10;;;;;;;21.52;32.87;101821.53;5133571;28;20304;-76
2022/05/04 07:04:27;;;;;;;12.50;5.13;;;;;;;21.48;34.17;101822.34;5134254;28;20565;-76
2022/05/04 07:06:52;;;;;;;10.55;4.60;;;;;;;21.97;33.63;101820.13;5133410;28;20039;-76
2022/05/04 07:09:18;;;;;;;8.93;5.10;;;;;;;22.91;31.79;101819.03;5134164;28;20019;-76
2022/05/04 07:11:43;;;;;;;15.07;5.27;;;;;;;23.82;30.43;101809.06;5134146;28;20027;-77
2022/05/04 07:14:08;;;;;;;6.40;3.70;;;;;;;24.53;27.69;101819.66;5133264;28;20031;-76
2022/05/04 07:16:33;;;;;;;10.53;4.70;;;;;;;24.62;29.24;101813.31;5115661;28;20280;-76
2022/05/04 07:18:59;;;;;;;10.20;4.30;;;;;;;25.01;28.37;101815.22;5133263;28;20295;-76
2022/05/04 07:21:25;;;;;;;11.93;4.40;;;;;;;25.57;27.17;101814.66;5133917;28;20280;-76
2022/05/04 07:23:50;;;;;;;11.93;4.63;;;;;;;26.47;25.86;101819.31;5115517;28;20117;-77
2022/05/04 07:26:15;;;;;;;13.83;4.93;;;;;;;27.07;25.62;101812.03;5133213;28;20043;-77
2022/05/04 07:28:40;;;;;;;13.07;4.60;;;;;;;27.60;24.88;101811.59;5115395;28;20049;-77
2022/05/04 07:31:06;;;;;;;9.73;4.13;;;;;;;28.08;23.97;101808.44;5114931;28;20293;-77
2022/05/04 07:33:31;;;;;;;8.73;5.27;;;;;;;28.54;22.89;101808.22;5133633;28;20297;-77
2022/05/04 07:35:56;;;;;;;12.03;4.97;;;;;;;28.88;22.24;101823.41;5133774;28;20031;-77
2022/05/04 07:38:22;;;;;;;10.10;5.00;;;;;;;29.26;22.39;101819.13;5132998;28;20083;-77
2022/05/04 07:43:31;;;;;;;8.45;4.70;;;;;;;29.87;21.25;101814.66;5133174;28;20084;-77
2022/05/04 07:45:56;;;;;;;9.93;4.80;;;;;;;29.97;21.18;101810.78;5115381;28;20390;-77
2022/05/04 07:48:22;;;;;;;11.03;5.10;;;;;;;30.25;20.56;101818.81;5114306;28;20289;-77
2022/05/04 07:50:47;;;;;;;11.52;5.65;;;;;;;30.29;21.08;101815.06;5133602;28;20279;-77
2022/05/04 07:53:12;;;;;;;12.97;5.80;;;;;;;30.63;20.43;101827.28;5133305;28;20035;-78
2022/05/04 07:55:38;;;;;;;12.53;5.73;;;;;;;30.60;20.79;101819.63;5132889;27;20058;-77
2022/05/04 07:58:03;;;;;;;12.73;6.13;;;;;;;30.77;19.95;101830.69;5113851;28;20284;-77
2022/05/04 08:06:12;;;;;;;12.35;5.50;;;;;;;31.96;18.94;101830.63;5086555;28;20096;-77
2022/05/04 08:08:37;;;;;;;10.30;6.03;;;;;;;32.18;18.37;101821.22;5114896;28;20027;-78
2022/05/04 08:11:03;;;;;;;11.55;6.07;;;;;;;32.25;18.90;101829.81;5114849;28;20084;-78
2022/05/04 08:13:29;;;;;;;10.70;5.75;;;;;;;32.34;18.67;101829.75;5114103;28;20475;-77
2022/05/04 08:15:54;;;;;;;10.32;5.75;;;;;;;32.29;18.53;101825.22;5133158;28;20023;-77
2022/05/04 08:18:20;;;;;;;11.30;5.70;;;;;;;31.27;19.07;101832.91;5114214;28;20082;-78
2022/05/04 08:20:45;;;;;;;13.52;5.80;;;;;;;30.38;19.57;101826.13;5114714;28;20756;-77
2022/05/04 08:23:11;;;;;;;12.52;6.57;;;;;;;29.57;20.50;101821.06;5132873;28;20071;-77
2022/05/04 08:25:36;;;;;;;12.00;6.17;;;;;;;30.51;19.92;101825.97;5132185;28;20406;-76
2022/05/04 08:28:02;;;;;;;11.77;6.00;;;;;;;31.93;18.50;101827.72;5132980;28;20272;-78
2022/05/04 08:30:27;;;;;;;14.85;6.85;;;;;;;32.51;19.28;101826.03;5132220;28;20043;-78
2022/05/04 08:32:53;;;;;;;12.80;5.63;;;;;;;33.02;18.35;101826.72;5132809;28;20030;-78
2022/05/04 08:35:19;;;;;;;11.45;5.70;;;;;;;33.76;17.11;101831.19;5132297;28;20441;-77
2022/05/04 08:37:44;;;;;;;13.25;6.65;;;;;;;33.40;17.56;101824.50;5132545;28;20067;-78
2022/05/04 08:40:11;;;;;;;21.65;7.20;;;;;;;33.25;17.90;101830.66;5114317;28;20064;-78
2022/05/04 08:42:42;;;;;;;14.18;6.97;;;;;;;32.90;18.13;101830.25;5131905;28;20119;-78
2022/05/04 08:45:11;;;;;;;11.18;6.60;;;;;;;31.79;18.42;101835.44;5114489;28;20027;-77
2022/05/04 08:47:39;;;;;;;11.38;6.68;;;;;;;31.40;18.90;101818.84;5131809;27;20047;-78
2022/05/04 08:50:24;;;;;;;13.13;6.45;;;;;;;32.41;19.34;101827.25;5114265;28;20026;-77
2022/05/04 08:52:55;;;;;;;14.25;6.85;;;;;;;31.90;19.01;101818.16;5131181;28;20047;-77
2022/05/04 08:55:21;;;;;;;8.85;6.80;;;;;;;31.81;18.86;101822.94;5132476;28;20030;-77
2022/05/04 08:57:47;;;;;;;11.98;6.28;;;;;;;31.68;18.98;101816.44;5132461;28;20035;-78
2022/05/04 09:00:13;;;;;;;18.83;7.63;;;;;;;31.52;19.15;101815.41;5131793;28;20509;-78
2022/05/04 09:02:39;;;;;;;14.45;6.95;;;;;;;31.22;18.88;101816.47;5132362;28;20483;-78
2022/05/04 09:05:23;;;;;;;16.65;6.90;;;;;;;31.28;20.22;101820.69;5131534;28;20046;-77
2022/05/04 09:07:50;;;;;;;12.05;7.45;;;;;;;32.00;18.44;101822.47;5132309;27;20041;-78
2022/05/04 09:10:37;;;;;;;13.23;7.07;;;;;;;33.23;18.61;101819.13;5131798;28;21696;-78
2022/05/04 09:13:03;;;;;;;14.35;7.00;;;;;;;33.57;16.43;101823.47;5132262;28;20039;-78
2022/05/04 09:15:36;;;;;;;12.52;6.65;;;;;;;34.14;17.62;101823.31;5132194;28;20429;-78
2022/05/04 09:18:13;;;;;;;11.68;7.00;;;;;;;34.16;16.88;101820.19;5113192;28;20039;-77
2022/05/04 09:20:48;;;;;;;13.75;6.68;;;;;;;34.13;16.26;101818.13;5113794;28;20539;-77
2022/05/04 09:23:18;;;;;;;12.02;7.13;;;;;;;33.94;16.81;101821.50;5131191;28;20043;-78
2022/05/04 09:25:44;;;;;;;11.30;7.15;;;;;;;34.01;16.69;101805.06;5132229;28;20031;-78
2022/05/04 09:28:12;;;;;;;14.20;7.70;;;;;;;33.17;17.35;101799.13;5131265;28;20122;-78
2022/05/04 09:30:52;;;;;;;11.27;6.88;;;;;;;32.15;18.86;101801.69;5132080;28;20071;-78
2022/05/04 09:33:23;;;;;;;9.60;6.93;;;;;;;32.43;18.32;101796.47;5131562;28;20042;-78
2022/05/04 09:35:49;;;;;;;9.15;6.50;;;;;;;33.39;17.00;101799.88;5131997;28;20035;-78
2022/05/04 09:46:42;;;;;;;14.80;7.78;;;;;;;30.87;19.33;101801.91;5131251;27;20405;-77
2022/05/04 09:49:11;;;;;;;13.45;7.05;;;;;;;30.30;19.71;101808.41;5131826;28;20497;-78
2022/05/04 09:51:38;;;;;;;12.70;8.23;;;;;;;29.60;19.66;101796.41;5112819;28;20047;-77
2022/05/04 09:54:27;;;;;;;16.17;7.68;;;;;;;28.92;21.78;101797.69;5131710;28;20428;-78
2022/05/04 09:57:01;;;;;;;20.10;8.73;;;;;;;27.19;23.68;101784.09;5130863;28;20055;-77
2022/05/04 09:59:29;;;;;;;12.90;8.23;;;;;;;26.35;23.98;101788.78;5131777;28;20080;-78
2022/05/04 10:01:55;;;;;;;11.43;7.70;;;;;;;25.73;25.24;101786.00;5131771;28;20023;-78
2022/05/04 10:04:23;;;;;;;13.63;7.72;;;;;;;25.27;25.61;101774.72;5130882;28;20027;-76
2022/05/04 10:06:49;;;;;;;14.07;8.18;;;;;;;25.18;25.87;101779.22;5131523;28;20031;-77
2022/05/04 10:09:15;;;;;;;12.07;8.02;;;;;;;25.78;25.28;101779.66;5130738;28;20073;-77
2022/05/04 10:11:40;;;;;;;10.60;7.30;;;;;;;26.33;24.63;101786.31;5131713;28;20063;-78
2022/05/04 10:14:15;;;;;;;15.88;8.63;;;;;;;26.34;24.56;101785.22;5131501;28;20031;-77
2022/05/04 10:17:06;;;;;;;14.10;7.78;;;;;;;26.96;24.75;101779.56;5106970;28;20042;-77
2022/05/04 10:19:47;;;;;;;15.02;7.93;;;;;;;26.64;24.69;101775.69;5113173;28;20054;-77
2022/05/04 10:22:20;;;;;;;10.85;7.88;;;;;;;26.41;25.37;101779.34;5116004;28;20066;-77
2022/05/04 10:24:45;;;;;;;15.90;7.93;;;;;;;26.38;25.13;101772.53;5134826;28;20027;-77
2022/05/04 10:27:17;;;;;;;13.30;7.65;;;;;;;25.52;25.07;101779.94;5133999;28;20054;-77
2022/05/04 10:32:43;;;;;;;16.23;8.55;;;;;;;23.57;27.97;101767.09;5134155;28;20410;-77
2022/05/04 10:35:26;;;;;;;13.80;7.90;;;;;;;23.85;28.24;101775.72;5134843;28;20030;-77
2022/05/04 10:37:58;;;;;;;16.30;8.18;;;;;;;24.19;27.11;101762.97;5116131;28;20126;-77
2022/05/04 10:40:44;;;;;;;12.02;7.80;;;;;;;24.59;26.52;101769.31;5134386;28;20495;-76
2022/05/04 10:43:18;;;;;;;13.10;7.25;;;;;;;24.97;26.59;101771.16;5134861;28;20398;-77
2022/05/04 10:45:47;;;;;;;13.88;7.53;;;;;;;25.19;25.65;101762.50;5134157;28;20118;-77
2022/05/04 10:48:14;;;;;;;13.73;8.60;;;;;;;24.84;26.67;101765.50;5134622;27;20515;-76
2022/05/04 10:50:55;;;;;;;11.30;8.23;;;;;;;23.82;28.38;101770.81;5133772;28;20085;-76
2022/05/04 10:53:23;;;;;;;19.00;9.25;;;;;;;23.95;27.39;101767.47;5134450;28;20032;-77
2022/05/04 10:56:04;;;;;;;14.95;8.88;;;;;;;23.56;29.15;101753.72;5115229;28;20027;-77
2022/05/04 10:58:42;;;;;;;16.50;8.10;;;;;;;24.03;28.55;101761.44;5116101;28;20487;-77
2022/05/04 11:01:15;;;;;;;12.32;8.00;;;;;;;24.56;27.39;101761.66;5134383;28;20531;-77
2022/05/04 11:04:17;;;;;;;15.10;8.98;;;;;;;25.38;28.42;101762.53;5115562;28;20043;-77
2022/05/04 11:06:48;;;;;;;16.83;8.80;;;;;;;24.99;26.82;101760.75;5115815;28;20030;-77
2022/05/04 11:09:16;;;;;;;17.13;8.07;;;;;;;25.06;26.37;101751.41;5115090;28;20051;-77
2022/05/04 11:11:46;;;;;;;14.02;8.18;;;;;;;26.53;26.34;101755.00;5134119;28;20030;-77
2022/05/04 11:14:13;;;;;;;16.73;8.68;;;;;;;26.50;24.80;101753.69;5133225;28;20169;-76
2022/05/04 11:16:40;;;;;;;12.57;7.85;;;;;;;25.18;25.78;101749.09;5133936;28;20383;-77
2022/05/04 11:19:06;;;;;;;14.18;7.90;;;;;;;24.34;28.48;101753.91;5134079;28;20475;-78
2022/05/04 11:21:33;;;;;;;12.68;7.90;;;;;;;23.96;28.39;101749.97;5115069;28;20042;-78
2022/05/04 11:24:01;;;;;;;15.73;8.80;;;;;;;23.30;29.21;101748.31;5115796;28;20027;-77
2022/05/04 11:26:34;;;;;;;13.13;8.40;;;;;;;23.37;28.73;101729.72;5133178;28;20051;-77
2022/05/04 11:28:59;;;;;;;14.65;8.27;;;;;;;24.75;27.19;101737.16;5133938;28;20027;-76
2022/05/04 11:31:25;;;;;;;19.50;9.13;;;;;;;25.92;26.48;101740.25;5133090;27;20424;-76
2022/05/04 11:33:50;;;;;;;17.60;9.55;;;;;;;26.51;25.55;101743.53;5133572;28;20540;-77
2022/05/04 11:39:38;;;;;;;15.13;8.57;;;;;;;28.05;22.73;101737.56;5133859;28;20045;-77
2022/05/04 11:42:07;;;;;;;15.13;8.50;;;;;;;28.08;22.90;101739.69;5133735;28;20031;-77
2022/05/04 11:44:33;;;;;;;15.82;8.23;;;;;;;27.72;24.32;101726.72;5133364;28;20046;-77
2022/05/04 11:47:01;;;;;;;17.30;9.93;;;;;;;27.25;23.96;101736.19;5133553;27;20027;-77
2022/05/04 11:49:29;;;;;;;15.40;9.00;;;;;;;27.40;22.93;101732.31;5132816;28;20070;-76
2022/05/04 11:51:55;;;;;;;15.20;9.25;;;;;;;26.76;23.85;101723.06;5115117;28;20486;-77
2022/05/04 11:54:21;;;;;;;15.45;9.13;;;;;;;27.43;23.48;101720.72;5114970;28;20035;-78
2022/05/04 11:56:47;;;;;;;18.25;9.45;;;;;;;27.09;23.82;101724.69;5132568;28;20095;-77
2022/05/04 11:59:13;;;;;;;15.57;8.95;;;;;;;26.21;25.63;101715.44;5133377;28;20031;-77
2022/05/04 12:01:38;;;;;;;13.80;9.00;;;;;;;25.63;26.88;101715.69;5132551;28;20122;-77
2022/05/04 12:04:05;;;;;;;22.30;9.00;;;;;;;24.81;27.36;101714.94;5114859;28;20035;-78
2022/05/04 12:06:32;;;;;;;18.25;8.10;;;;;;;24.47;28.65;101706.75;5133195;28;20031;-76
2022/05/04 12:08:59;;;;;;;14.73;8.70;;;;;;;24.49;27.80;101709.19;5132723;28;20046;-78
2022/05/04 12:11:25;;;;;;;15.63;9.20;;;;;;;24.18;27.23;101701.19;5133157;28;20027;-78